createdAt,value
2023-03-05T00:00:45.774Z,102170.47
2023-03-05T00:05:49.938Z,102164.38
2023-03-05T00:10:57.371Z,102152.38
2023-03-05T00:16:00.244Z,102149.81
2023-03-05T00:21:05.268Z,102151.50
2023-03-05T00:26:08.165Z,102148.09
2023-03-05T00:31:12.507Z,102154.00
2023-03-05T00:36:17.174Z,102145.78
2023-03-05T00:41:20.166Z,102144.63
2023-03-05T00:46:23.483Z,102147.94
2023-03-05T00:51:27.893Z,102146.94
2023-03-05T00:56:30.703Z,102129.56
2023-03-05T01:01:33.762Z,102146.47
2023-03-05T01:06:42.752Z,102144.84
2023-03-05T01:11:45.589Z,102160.41
2023-03-05T01:16:48.832Z,102146.81
2023-03-05T01:21:54.106Z,102148.75
2023-03-05T01:26:57.712Z,102129.81
2023-03-05T01:32:02.328Z,102135.16
2023-03-05T01:37:06.678Z,102121.59
2023-03-05T01:42:09.633Z,102114.66
2023-03-05T01:47:12.534Z,102100.75
2023-03-05T01:52:18.254Z,102105.88
2023-03-05T01:57:24.065Z,102091.94
2023-03-05T02:02:27.201Z,102081.56
2023-03-05T02:07:32.487Z,102068.63
2023-03-05T02:12:35.549Z,102066.19
2023-03-05T02:17:38.405Z,102054.13
2023-03-05T02:22:42.644Z,102063.56
2023-03-05T02:27:48.981Z,102054.16
2023-03-05T02:32:52.242Z,102035.22
2023-03-05T02:37:58.567Z,102016.31
2023-03-05T02:43:01.943Z,102000.84
2023-03-05T02:48:05.469Z,101986.25
2023-03-05T02:53:09.801Z,101972.56
2023-03-05T02:58:13.550Z,101957.06
2023-03-05T03:03:16.665Z,101954.44
2023-03-05T03:08:20.975Z,101936.22
2023-03-05T03:13:23.967Z,101936.13
2023-03-05T03:18:27.151Z,101913.69
2023-03-05T03:23:31.983Z,101909.97
2023-03-05T03:28:34.904Z,101903.63
2023-03-05T03:33:37.783Z,101894.09
2023-03-05T03:38:42.056Z,101898.16
2023-03-05T03:43:44.897Z,101894.63
2023-03-05T03:48:51.532Z,101884.25
2023-03-05T03:53:55.768Z,101884.31
2023-03-05T03:58:58.600Z,101879.41
2023-03-05T04:04:01.561Z,101870.09
2023-03-05T04:09:06.262Z,101872.66
2023-03-05T04:14:09.089Z,101871.81
2023-03-05T04:19:11.999Z,101859.75
2023-03-05T04:24:16.191Z,101859.09
2023-03-05T04:29:19.383Z,101840.25
2023-03-05T04:34:22.223Z,101835.94
2023-03-05T04:39:26.493Z,101825.59
2023-03-05T04:44:29.449Z,101820.44
2023-03-05T04:49:32.350Z,101820.44
2023-03-05T04:54:36.632Z,101817.84
2023-03-05T04:59:39.648Z,101811.75
2023-03-05T05:04:45.222Z,101798.03
2023-03-05T05:09:49.456Z,101786.88
2023-03-05T05:14:52.290Z,101787.69
2023-03-05T05:19:55.082Z,101791.91
2023-03-05T05:24:59.281Z,101790.19
2023-03-05T05:30:02.306Z,101782.34
2023-03-05T05:35:05.487Z,101794.44
2023-03-05T05:40:11.329Z,101770.41
2023-03-05T05:45:14.310Z,101770.44
2023-03-05T05:50:17.597Z,101759.09
2023-03-05T05:55:21.939Z,101760.78
2023-03-05T06:00:25.110Z,101768.44
2023-03-05T06:05:28.014Z,101757.31
2023-03-05T06:10:32.253Z,101762.53
2023-03-05T06:15:35.173Z,101762.50
2023-03-05T06:20:38.011Z,101763.38
2023-03-05T06:25:42.152Z,101761.63
2023-03-05T06:30:45.012Z,101765.25
2023-03-05T06:35:47.917Z,101767.94
2023-03-05T06:40:52.424Z,101767.94
2023-03-05T06:46:03.125Z,101764.47
2023-03-05T06:51:06.518Z,101765.47
2023-03-05T06:56:11.457Z,101758.72
2023-03-05T07:01:14.588Z,101751.94
2023-03-05T07:06:17.561Z,101753.63
2023-03-05T07:11:23.770Z,101748.50
2023-03-05T07:16:28.163Z,101745.81
2023-03-05T07:21:32.774Z,101742.44
2023-03-05T07:26:37.209Z,101747.63
2023-03-05T07:31:40.094Z,101746.22
2023-03-05T07:36:43.045Z,101734.34
2023-03-05T07:41:47.673Z,101755.31
2023-03-05T07:46:51.084Z,101757.16
2023-03-05T07:51:53.896Z,101772.72
2023-03-05T07:56:58.193Z,101784.47
2023-03-05T08:02:01.014Z,101780.88
2023-03-05T08:07:03.923Z,101798.63
2023-03-05T08:12:09.926Z,101791.66
2023-03-05T08:17:12.853Z,101797.63
2023-03-05T08:22:16.168Z,101800.94
2023-03-05T08:27:20.443Z,101795.09
2023-03-05T08:32:23.598Z,101793.47
2023-03-05T08:37:26.581Z,101784.25
2023-03-05T08:42:30.909Z,101791.25
2023-03-05T08:47:33.741Z,101786.06
2023-03-05T08:52:36.599Z,101788.91
2023-03-05T08:57:40.790Z,101785.47
2023-03-05T09:02:43.640Z,101786.22
2023-03-05T09:07:46.601Z,101778.56
2023-03-05T09:12:50.802Z,101779.72
2023-03-05T09:17:53.806Z,101771.38
2023-03-05T09:22:56.687Z,101769.94
2023-03-05T09:28:00.912Z,101762.44
2023-03-05T09:33:04.204Z,101762.47
2023-03-05T09:38:07.056Z,101752.03
2023-03-05T09:43:20.672Z,101758.16
2023-03-05T09:48:26.448Z,101743.44
2023-03-05T09:53:38.447Z,101730.38
2023-03-05T09:58:44.168Z,101748.59
2023-03-05T10:03:54.889Z,101745.09
2023-03-05T10:08:59.691Z,101735.63
2023-03-05T10:14:04.274Z,101739.13
2023-03-05T10:19:12.059Z,101738.28
2023-03-05T10:24:18.431Z,101720.84
2023-03-05T10:29:41.178Z,101717.28
2023-03-05T10:35:03.292Z,101707.75
2023-03-05T10:40:15.339Z,101725.22
2023-03-05T10:45:22.170Z,101712.22
2023-03-05T10:50:26.983Z,101701.72
2023-03-05T10:55:29.820Z,101694.81
2023-03-05T11:00:34.592Z,101687.88
2023-03-05T11:05:42.044Z,101681.88
2023-03-05T11:10:44.887Z,101670.63
2023-03-05T11:16:00.236Z,101668.00
2023-03-05T11:21:09.749Z,101658.47
2023-03-05T11:26:20.676Z,101662.78
2023-03-05T11:31:30.075Z,101647.16
2023-03-05T11:36:34.713Z,101641.94
2023-03-05T11:41:40.290Z,101634.94
2023-03-05T11:46:47.871Z,101618.41
2023-03-05T11:51:59.249Z,101616.66
2023-03-05T11:57:03.782Z,101603.63
2023-03-05T12:02:19.402Z,101595.84
2023-03-05T12:07:28.360Z,101604.53
2023-03-05T12:12:38.867Z,101585.41
2023-03-05T12:17:46.964Z,101583.84
2023-03-05T12:22:50.706Z,101579.56
2023-03-05T12:27:53.722Z,101558.75
2023-03-05T12:32:57.982Z,101550.97
2023-03-05T12:38:25.618Z,101553.59
2023-03-05T12:43:31.343Z,101543.19
2023-03-05T12:48:47.587Z,101534.50
2023-03-05T12:53:52.071Z,101514.56
2023-03-05T12:58:56.645Z,101509.31
2023-03-05T13:04:04.214Z,101507.56
2023-03-05T13:09:13.937Z,101488.19
2023-03-05T13:14:33.528Z,101491.38
2023-03-05T13:19:37.739Z,101480.84
2023-03-05T13:24:40.593Z,101468.59
2023-03-05T13:29:51.807Z,101464.41
2023-03-05T13:34:58.086Z,101464.44
2023-03-05T13:40:04.933Z,101462.13
2023-03-05T13:45:22.766Z,101462.91
2023-03-05T13:50:29.492Z,101448.78
2023-03-05T13:55:32.351Z,101450.34
2023-03-05T14:00:36.564Z,101444.91
2023-03-05T14:05:45.784Z,101424.84
2023-03-05T14:10:49.041Z,101441.50
2023-03-05T14:16:05.698Z,101430.38
2023-03-05T14:21:11.665Z,101437.59
2023-03-05T14:26:27.517Z,101423.59
2023-03-05T14:31:33.058Z,101402.59
2023-03-05T14:36:39.021Z,101400.56
2023-03-05T14:41:43.064Z,101388.31
2023-03-05T14:46:49.753Z,101388.09
2023-03-05T14:51:53.979Z,101373.59
2023-03-05T14:56:56.770Z,101370.47
2023-03-05T15:01:59.548Z,101368.09
2023-03-05T15:07:03.798Z,101357.75
2023-03-05T15:12:07.072Z,101359.06
2023-03-05T15:17:18.582Z,101351.47
2023-03-05T15:22:22.835Z,101342.94
2023-03-05T15:27:25.613Z,101336.91
2023-03-05T15:32:29.116Z,101334.34
2023-03-05T15:37:33.325Z,101327.41
2023-03-05T15:42:36.086Z,101321.28
2023-03-05T15:47:38.935Z,101312.75
2023-03-05T15:52:43.121Z,101305.00
2023-03-05T15:57:47.565Z,101301.59
2023-03-05T16:02:50.499Z,101284.34
2023-03-05T16:07:55.136Z,101299.94
2023-03-05T16:13:03.662Z,101271.41
2023-03-05T16:18:09.512Z,101281.78
2023-03-05T16:23:13.649Z,101277.44
2023-03-05T16:28:16.474Z,101271.41
2023-03-05T16:33:19.238Z,101266.22
2023-03-05T16:38:23.346Z,101254.94
2023-03-05T16:43:26.124Z,101255.81
2023-03-05T16:48:30.342Z,101252.34
2023-03-05T16:53:34.625Z,101252.31
2023-03-05T16:58:38.931Z,101249.72
2023-03-05T17:03:43.454Z,101241.91
2023-03-05T17:08:48.955Z,101239.25
2023-03-05T17:13:51.892Z,101234.94
2023-03-05T17:18:54.744Z,101234.91
2023-03-05T17:23:59.022Z,101228.03
2023-03-05T17:29:01.803Z,101225.44
2023-03-05T17:34:04.616Z,101224.59
2023-03-05T17:39:08.865Z,101221.09
2023-03-05T17:44:11.652Z,101218.47
2023-03-05T17:49:14.488Z,101217.59
2023-03-05T17:54:18.637Z,101212.41
2023-03-05T17:59:21.414Z,101213.28
2023-03-05T18:04:24.364Z,101210.69
2023-03-05T18:09:28.645Z,101203.78
2023-03-05T18:14:31.468Z,101209.81
2023-03-05T18:19:34.334Z,101207.22
2023-03-05T18:24:38.696Z,101196.88
2023-03-05T18:29:41.497Z,101196.00
2023-03-05T18:34:44.469Z,101183.88
2023-03-05T18:39:48.578Z,101180.41
2023-03-05T18:44:51.421Z,101173.50
2023-03-05T18:49:54.370Z,101171.78
2023-03-05T18:54:58.497Z,101163.16
2023-03-05T19:00:01.371Z,101156.25
2023-03-05T19:05:04.312Z,101152.81
2023-03-05T19:10:10.245Z,101128.59
2023-03-05T19:15:14.500Z,101142.41
2023-03-05T19:20:18.004Z,101139.75
2023-03-05T19:25:22.212Z,101135.44
2023-03-05T19:30:25.209Z,101138.00
2023-03-05T19:35:28.132Z,101132.81
2023-03-05T19:40:32.265Z,101128.53
2023-03-05T19:45:35.636Z,101116.41
2023-03-05T19:50:38.483Z,101114.66
2023-03-05T19:55:42.648Z,101113.81
2023-03-05T20:00:45.617Z,101098.28
2023-03-05T20:05:48.524Z,101085.41
2023-03-05T20:10:52.681Z,101084.53
2023-03-05T20:15:55.848Z,101077.56
2023-03-05T20:21:01.976Z,101087.06
2023-03-05T20:26:06.765Z,101087.06
2023-03-05T20:31:09.796Z,101085.34
2023-03-05T20:36:12.683Z,101088.81
2023-03-05T20:41:19.222Z,101087.13
2023-03-05T20:46:23.545Z,101075.00
2023-03-05T20:51:27.676Z,101075.00
2023-03-05T20:56:33.670Z,101070.63
2023-03-05T21:01:38.016Z,101026.56
2023-03-05T21:06:40.923Z,101040.38
2023-03-05T21:11:45.125Z,101050.72
2023-03-05T21:16:47.970Z,101041.16
2023-03-05T21:21:50.727Z,101040.19
2023-03-05T21:26:54.894Z,101038.34
2023-03-05T21:31:57.762Z,101036.53
2023-03-05T21:37:00.564Z,101033.06
2023-03-05T21:42:05.177Z,101024.41
2023-03-05T21:47:08.082Z,101014.03
2023-03-05T21:52:12.750Z,101013.06
2023-03-05T21:57:16.864Z,101000.94
2023-03-05T22:02:21.266Z,101003.41
2023-03-05T22:07:24.055Z,100997.31
2023-03-05T22:12:43.045Z,100992.13
2023-03-05T22:17:46.113Z,100976.59
2023-03-05T22:22:49.167Z,100976.59
2023-03-05T22:27:53.472Z,100965.31
2023-03-05T22:32:56.355Z,100958.41
2023-03-05T22:37:59.575Z,100950.69
2023-03-05T22:43:03.939Z,100950.69
2023-03-05T22:48:07.501Z,100929.22
2023-03-05T22:53:10.401Z,100932.59
2023-03-05T22:58:14.572Z,100923.97
2023-03-05T23:03:17.462Z,100913.59
2023-03-05T23:08:20.327Z,100914.47
2023-03-05T23:13:24.477Z,100910.16
2023-03-05T23:18:27.282Z,100908.44
2023-03-05T23:23:30.053Z,100899.88
2023-03-05T23:28:34.215Z,100892.22
2023-03-05T23:33:37.060Z,100882.78
2023-03-05T23:38:39.903Z,100877.66
2023-03-05T23:43:44.014Z,100879.47
2023-03-05T23:48:46.838Z,100873.47
2023-03-05T23:53:49.659Z,100869.16
2023-03-05T23:58:56.023Z,100855.38
